sensor_id;sensor_type;location;lat;lon;timestamp;pressure;altitude;pressure_sealevel;temperature;humidity
85159;BME280;75525;50.718;10.600;2024-02-23T00:00:20;93335.53;;;6.85;86.47
85159;BME280;75525;50.718;10.600;2024-02-23T00:01:20;93344.78;;;6.79;86.82
85159;BME280;75525;50.718;10.600;2024-02-23T00:02:21;93347.06;;;6.72;84.67
85159;BME280;75525;50.718;10.600;2024-02-23T00:03:21;93362.31;;;6.76;86.01
85159;BME280;75525;50.718;10.600;2024-02-23T00:04:22;93349.75;;;6.72;85.99
85159;BME280;75525;50.718;10.600;2024-02-23T00:05:24;93350.19;;;6.65;83.79
85159;BME280;75525;50.718;10.600;2024-02-23T00:06:25;93334.25;;;6.55;81.90
85159;BME280;75525;50.718;10.600;2024-02-23T00:07:27;93357.94;;;6.53;82.08
85159;BME280;75525;50.718;10.600;2024-02-23T00:08:28;93326.19;;;6.41;81.61
85159;BME280;75525;50.718;10.600;2024-02-23T00:09:28;93353.06;;;6.41;80.82
85159;BME280;75525;50.718;10.600;2024-02-23T00:10:29;93354.53;;;6.33;81.25
85159;BME280;75525;50.718;10.600;2024-02-23T00:11:29;93362.88;;;6.32;82.00
85159;BME280;75525;50.718;10.600;2024-02-23T00:12:30;93357.13;;;6.25;81.50
85159;BME280;75525;50.718;10.600;2024-02-23T00:13:30;93354.72;;;6.23;81.93
85159;BME280;75525;50.718;10.600;2024-02-23T00:14:31;93349.44;;;6.18;81.06
85159;BME280;75525;50.718;10.600;2024-02-23T00:15:32;93355.31;;;6.20;79.79
85159;BME280;75525;50.718;10.600;2024-02-23T00:16:38;93336.91;;;6.13;80.52
85159;BME280;75525;50.718;10.600;2024-02-23T00:17:39;93317.88;;;6.10;80.99
85159;BME280;75525;50.718;10.600;2024-02-23T00:18:39;93330.31;;;6.06;82.01
85159;BME280;75525;50.718;10.600;2024-02-23T00:19:40;93328.22;;;6.03;80.65
85159;BME280;75525;50.718;10.600;2024-02-23T00:20:40;93344.63;;;6.01;81.66
85159;BME280;75525;50.718;10.600;2024-02-23T00:21:41;93344.72;;;5.96;82.18
85159;BME280;75525;50.718;10.600;2024-02-23T00:22:42;93344.72;;;5.96;81.83
85159;BME280;75525;50.718;10.600;2024-02-23T00:23:42;93337.47;;;5.97;82.02
85159;BME280;75525;50.718;10.600;2024-02-23T00:24:43;93355.06;;;6.03;81.37
85159;BME280;75525;50.718;10.600;2024-02-23T00:25:43;93341.94;;;6.01;82.26
85159;BME280;75525;50.718;10.600;2024-02-23T00:26:44;93341.16;;;6.01;82.00
85159;BME280;75525;50.718;10.600;2024-02-23T00:27:44;93341.53;;;5.94;82.12
85159;BME280;75525;50.718;10.600;2024-02-23T00:28:46;93342.31;;;5.94;79.83
85159;BME280;75525;50.718;10.600;2024-02-23T00:29:47;93340.44;;;5.95;81.94
85159;BME280;75525;50.718;10.600;2024-02-23T00:30:47;93352.28;;;5.94;82.55
85159;BME280;75525;50.718;10.600;2024-02-23T00:31:48;93358.06;;;6.01;82.59
85159;BME280;75525;50.718;10.600;2024-02-23T00:32:49;93350.91;;;5.97;83.01
85159;BME280;75525;50.718;10.600;2024-02-23T00:33:50;93357.53;;;5.99;83.01
85159;BME280;75525;50.718;10.600;2024-02-23T00:34:50;93367.28;;;5.95;82.91
85159;BME280;75525;50.718;10.600;2024-02-23T00:35:51;93376.66;;;5.98;83.49
85159;BME280;75525;50.718;10.600;2024-02-23T00:36:51;93380.13;;;5.98;83.44
85159;BME280;75525;50.718;10.600;2024-02-23T00:37:52;93394.56;;;6.02;80.92
85159;BME280;75525;50.718;10.600;2024-02-23T00:38:52;93384.13;;;6.01;82.22
85159;BME280;75525;50.718;10.600;2024-02-23T00:39:53;93385.00;;;5.96;81.75
85159;BME280;75525;50.718;10.600;2024-02-23T00:40:53;93392.47;;;5.99;82.65
85159;BME280;75525;50.718;10.600;2024-02-23T00:41:54;93412.34;;;5.98;83.64
85159;BME280;75525;50.718;10.600;2024-02-23T00:42:54;93418.25;;;6.00;83.62
85159;BME280;75525;50.718;10.600;2024-02-23T00:43:55;93405.50;;;5.92;83.67
85159;BME280;75525;50.718;10.600;2024-02-23T00:44:55;93434.94;;;5.97;82.51
85159;BME280;75525;50.718;10.600;2024-02-23T00:45:56;93436.59;;;5.93;83.23
85159;BME280;75525;50.718;10.600;2024-02-23T00:46:56;93444.13;;;5.91;84.17
85159;BME280;75525;50.718;10.600;2024-02-23T00:47:58;93435.06;;;5.87;84.18
85159;BME280;75525;50.718;10.600;2024-02-23T00:48:59;93406.78;;;5.76;85.44
85159;BME280;75525;50.718;10.600;2024-02-23T00:49:59;93445.56;;;5.83;83.54
85159;BME280;75525;50.718;10.600;2024-02-23T00:51:01;93435.50;;;5.75;83.56
85159;BME280;75525;50.718;10.600;2024-02-23T00:52:03;93393.84;;;5.78;81.93
85159;BME280;75525;50.718;10.600;2024-02-23T00:53:03;93430.34;;;5.79;81.53
85159;BME280;75525;50.718;10.600;2024-02-23T00:54:04;93427.16;;;5.77;82.26
85159;BME280;75525;50.718;10.600;2024-02-23T00:55:05;93430.50;;;5.68;81.34
85159;BME280;75525;50.718;10.600;2024-02-23T00:56:05;93436.66;;;5.69;82.27
85159;BME280;75525;50.718;10.600;2024-02-23T00:57:06;93443.34;;;5.72;82.24
85159;BME280;75525;50.718;10.600;2024-02-23T00:58:06;93447.09;;;5.70;82.75
85159;BME280;75525;50.718;10.600;2024-02-23T00:59:07;93435.31;;;5.72;82.86
85159;BME280;75525;50.718;10.600;2024-02-23T01:00:08;93438.03;;;5.66;82.51
85159;BME280;75525;50.718;10.600;2024-02-23T01:01:09;93427.47;;;5.56;82.03
85159;BME280;75525;50.718;10.600;2024-02-23T01:02:10;93489.03;;;5.66;80.33
85159;BME280;75525;50.718;10.600;2024-02-23T01:03:10;93487.38;;;5.70;81.00
85159;BME280;75525;50.718;10.600;2024-02-23T01:04:10;93469.19;;;5.67;79.46
85159;BME280;75525;50.718;10.600;2024-02-23T01:05:11;93496.50;;;5.69;79.56
85159;BME280;75525;50.718;10.600;2024-02-23T01:06:12;93471.88;;;5.67;80.22
85159;BME280;75525;50.718;10.600;2024-02-23T01:07:13;93476.56;;;5.57;80.03
85159;BME280;75525;50.718;10.600;2024-02-23T01:08:13;93489.63;;;5.63;80.55
85159;BME280;75525;50.718;10.600;2024-02-23T01:09:13;93481.13;;;5.56;81.29
85159;BME280;75525;50.718;10.600;2024-02-23T01:10:16;93484.03;;;5.60;81.26
85159;BME280;75525;50.718;10.600;2024-02-23T01:11:17;93507.41;;;5.59;80.68
85159;BME280;75525;50.718;10.600;2024-02-23T01:12:18;93508.78;;;5.57;79.13
85159;BME280;75525;50.718;10.600;2024-02-23T01:13:18;93522.25;;;5.52;79.98
85159;BME280;75525;50.718;10.600;2024-02-23T01:14:19;93502.47;;;5.48;79.60
85159;BME280;75525;50.718;10.600;2024-02-23T01:15:19;93480.47;;;5.45;77.04
85159;BME280;75525;50.718;10.600;2024-02-23T01:16:20;93498.97;;;5.47;76.75
85159;BME280;75525;50.718;10.600;2024-02-23T01:17:20;93514.47;;;5.50;78.03
85159;BME280;75525;50.718;10.600;2024-02-23T01:18:21;93507.06;;;5.42;76.83
85159;BME280;75525;50.718;10.600;2024-02-23T01:19:21;93469.78;;;5.21;77.59
85159;BME280;75525;50.718;10.600;2024-02-23T01:20:22;93529.34;;;5.42;77.09
85159;BME280;75525;50.718;10.600;2024-02-23T01:21:22;93528.75;;;5.45;77.29
85159;BME280;75525;50.718;10.600;2024-02-23T01:22:23;93511.41;;;5.38;77.75
85159;BME280;75525;50.718;10.600;2024-02-23T01:23:23;93537.69;;;5.41;78.35
85159;BME280;75525;50.718;10.600;2024-02-23T01:24:24;93525.91;;;5.37;79.42
85159;BME280;75525;50.718;10.600;2024-02-23T01:25:26;93539.03;;;5.38;78.22
85159;BME280;75525;50.718;10.600;2024-02-23T01:26:26;93521.25;;;5.24;77.82
85159;BME280;75525;50.718;10.600;2024-02-23T01:27:27;93529.47;;;5.32;78.64
85159;BME280;75525;50.718;10.600;2024-02-23T01:28:28;93503.28;;;5.24;77.05
85159;BME280;75525;50.718;10.600;2024-02-23T01:29:28;93515.53;;;5.30;76.93
85159;BME280;75525;50.718;10.600;2024-02-23T01:30:29;93539.97;;;5.29;77.27
85159;BME280;75525;50.718;10.600;2024-02-23T01:31:29;93549.38;;;5.26;77.65
85159;BME280;75525;50.718;10.600;2024-02-23T01:32:29;93532.78;;;5.24;77.78
85159;BME280;75525;50.718;10.600;2024-02-23T01:33:30;93540.06;;;5.18;78.21
85159;BME280;75525;50.718;10.600;2024-02-23T01:34:30;93542.19;;;5.21;78.69
85159;BME280;75525;50.718;10.600;2024-02-23T01:35:31;93521.94;;;5.10;77.95
85159;BME280;75525;50.718;10.600;2024-02-23T01:36:31;93554.81;;;5.21;77.23
85159;BME280;75525;50.718;10.600;2024-02-23T01:37:32;93556.41;;;5.22;76.48
85159;BME280;75525;50.718;10.600;2024-02-23T01:38:33;93557.25;;;5.17;77.08
85159;BME280;75525;50.718;10.600;2024-02-23T01:39:34;93551.09;;;5.17;77.21
85159;BME280;75525;50.718;10.600;2024-02-23T01:40:34;93561.53;;;5.18;77.99
85159;BME280;75525;50.718;10.600;2024-02-23T01:41:35;93536.88;;;5.16;76.61
85159;BME280;75525;50.718;10.600;2024-02-23T01:42:37;93550.06;;;5.13;75.70
85159;BME280;75525;50.718;10.600;2024-02-23T01:43:37;93560.00;;;5.12;76.71
85159;BME280;75525;50.718;10.600;2024-02-23T01:44:39;93561.31;;;5.15;76.35
85159;BME280;75525;50.718;10.600;2024-02-23T01:45:39;93562.16;;;5.10;75.87
85159;BME280;75525;50.718;10.600;2024-02-23T01:46:40;93563.25;;;5.09;76.28
85159;BME280;75525;50.718;10.600;2024-02-23T01:47:40;93570.81;;;5.02;77.00
85159;BME280;75525;50.718;10.600;2024-02-23T01:48:41;93563.81;;;5.06;75.20
85159;BME280;75525;50.718;10.600;2024-02-23T01:49:42;93552.03;;;5.02;74.98
85159;BME280;75525;50.718;10.600;2024-02-23T01:50:43;93573.47;;;5.07;75.81
85159;BME280;75525;50.718;10.600;2024-02-23T01:51:43;93573.47;;;5.07;75.34
85159;BME280;75525;50.718;10.600;2024-02-23T01:52:44;93575.63;;;5.05;75.70
85159;BME280;75525;50.718;10.600;2024-02-23T01:53:44;93564.41;;;4.98;76.52
85159;BME280;75525;50.718;10.600;2024-02-23T01:54:46;93541.44;;;4.92;77.07
85159;BME280;75525;50.718;10.600;2024-02-23T01:55:47;93575.44;;;4.96;76.18
85159;BME280;75525;50.718;10.600;2024-02-23T01:56:48;93555.69;;;4.87;76.28
85159;BME280;75525;50.718;10.600;2024-02-23T01:57:49;93578.19;;;4.91;76.10
85159;BME280;75525;50.718;10.600;2024-02-23T01:58:49;93526.69;;;4.65;76.65
85159;BME280;75525;50.718;10.600;2024-02-23T01:59:50;93576.59;;;4.90;75.73
85159;BME280;75525;50.718;10.600;2024-02-23T02:00:50;93575.81;;;4.85;75.82
85159;BME280;75525;50.718;10.600;2024-02-23T02:01:52;93564.81;;;4.86;74.94
85159;BME280;75525;50.718;10.600;2024-02-23T02:02:53;93584.38;;;4.87;74.93
85159;BME280;75525;50.718;10.600;2024-02-23T02:03:53;93565.72;;;4.77;76.67
85159;BME280;75525;50.718;10.600;2024-02-23T02:04:54;93578.00;;;4.83;76.04
85159;BME280;75525;50.718;10.600;2024-02-23T02:05:55;93594.63;;;4.80;76.01
85159;BME280;75525;50.718;10.600;2024-02-23T02:06:59;93569.78;;;4.69;75.42
85159;BME280;75525;50.718;10.600;2024-02-23T02:07:59;93549.16;;;4.69;75.59
85159;BME280;75525;50.718;10.600;2024-02-23T02:09:02;93590.91;;;4.76;76.19
85159;BME280;75525;50.718;10.600;2024-02-23T02:10:04;93565.28;;;4.64;76.28
85159;BME280;75525;50.718;10.600;2024-02-23T02:11:05;93587.44;;;4.75;74.25
85159;BME280;75525;50.718;10.600;2024-02-23T02:12:06;93594.16;;;4.72;76.03
85159;BME280;75525;50.718;10.600;2024-02-23T02:13:06;93588.75;;;4.78;75.45
85159;BME280;75525;50.718;10.600;2024-02-23T02:14:07;93593.41;;;4.67;75.71
85159;BME280;75525;50.718;10.600;2024-02-23T02:15:08;93597.88;;;4.77;75.30
85159;BME280;75525;50.718;10.600;2024-02-23T02:16:08;93569.00;;;4.68;75.72
85159;BME280;75525;50.718;10.600;2024-02-23T02:17:09;93599.50;;;4.72;75.56
85159;BME280;75525;50.718;10.600;2024-02-23T02:18:10;93586.72;;;4.64;75.60
85159;BME280;75525;50.718;10.600;2024-02-23T02:19:11;93581.13;;;4.61;75.42
85159;BME280;75525;50.718;10.600;2024-02-23T02:20:13;93601.16;;;4.68;74.67
85159;BME280;75525;50.718;10.600;2024-02-23T02:21:14;93588.31;;;4.65;74.25
85159;BME280;75525;50.718;10.600;2024-02-23T02:22:14;93596.34;;;4.65;75.44
85159;BME280;75525;50.718;10.600;2024-02-23T02:23:15;93576.59;;;4.56;76.11
85159;BME280;75525;50.718;10.600;2024-02-23T02:24:15;93592.41;;;4.58;76.71
85159;BME280;75525;50.718;10.600;2024-02-23T02:25:16;93595.84;;;4.63;75.52
85159;BME280;75525;50.718;10.600;2024-02-23T02:26:16;93595.09;;;4.58;74.89
85159;BME280;75525;50.718;10.600;2024-02-23T02:27:16;93601.19;;;4.63;75.11
85159;BME280;75525;50.718;10.600;2024-02-23T02:28:17;93597.19;;;4.61;75.00
85159;BME280;75525;50.718;10.600;2024-02-23T02:29:17;93605.53;;;4.59;75.73
85159;BME280;75525;50.718;10.600;2024-02-23T02:30:18;93600.22;;;4.54;74.92
85159;BME280;75525;50.718;10.600;2024-02-23T02:31:18;93613.03;;;4.57;75.51
85159;BME280;75525;50.718;10.600;2024-02-23T02:32:19;93602.88;;;4.54;76.13
85159;BME280;75525;50.718;10.600;2024-02-23T02:33:20;93585.78;;;4.45;74.99
85159;BME280;75525;50.718;10.600;2024-02-23T02:34:20;93543.44;;;4.18;76.58
85159;BME280;75525;50.718;10.600;2024-02-23T02:35:21;93609.31;;;4.53;76.14
85159;BME280;75525;50.718;10.600;2024-02-23T02:36:21;93608.81;;;4.51;76.81
85159;BME280;75525;50.718;10.600;2024-02-23T02:37:21;93610.16;;;4.49;75.67
85159;BME280;75525;50.718;10.600;2024-02-23T02:38:22;93605.88;;;4.47;75.55
85159;BME280;75525;50.718;10.600;2024-02-23T02:39:23;93607.75;;;4.47;75.25
85159;BME280;75525;50.718;10.600;2024-02-23T02:40:24;93608.25;;;4.49;76.23
85159;BME280;75525;50.718;10.600;2024-02-23T02:41:28;93619.56;;;4.46;75.45
85159;BME280;75525;50.718;10.600;2024-02-23T02:42:29;93636.19;;;4.43;75.21
85159;BME280;75525;50.718;10.600;2024-02-23T02:43:30;93593.91;;;4.35;75.97
85159;BME280;75525;50.718;10.600;2024-02-23T02:44:30;93661.13;;;4.38;77.73
85159;BME280;75525;50.718;10.600;2024-02-23T02:45:31;93642.16;;;4.30;77.95
85159;BME280;75525;50.718;10.600;2024-02-23T02:46:32;93647.06;;;4.17;78.64
85159;BME280;75525;50.718;10.600;2024-02-23T02:47:32;93640.66;;;4.08;80.78
85159;BME280;75525;50.718;10.600;2024-02-23T02:48:33;93646.13;;;3.93;81.23
85159;BME280;75525;50.718;10.600;2024-02-23T02:49:33;93639.53;;;3.65;83.49
85159;BME280;75525;50.718;10.600;2024-02-23T02:50:34;93653.22;;;3.53;84.79
85159;BME280;75525;50.718;10.600;2024-02-23T02:51:34;93655.41;;;3.36;85.57
85159;BME280;75525;50.718;10.600;2024-02-23T02:52:35;93677.34;;;3.33;86.13
85159;BME280;75525;50.718;10.600;2024-02-23T02:53:35;93667.19;;;3.30;87.29
85159;BME280;75525;50.718;10.600;2024-02-23T02:54:36;93674.97;;;3.21;87.26
85159;BME280;75525;50.718;10.600;2024-02-23T02:55:40;93680.03;;;3.22;88.50
85159;BME280;75525;50.718;10.600;2024-02-23T02:56:45;93674.94;;;3.16;88.13
85159;BME280;75525;50.718;10.600;2024-02-23T02:57:46;93688.06;;;3.17;89.14
85159;BME280;75525;50.718;10.600;2024-02-23T02:58:46;93655.97;;;3.07;87.90
85159;BME280;75525;50.718;10.600;2024-02-23T02:59:47;93676.03;;;3.15;89.32
85159;BME280;75525;50.718;10.600;2024-02-23T03:00:50;93676.56;;;3.17;89.21
85159;BME280;75525;50.718;10.600;2024-02-23T03:01:50;93683.78;;;3.16;89.24
85159;BME280;75525;50.718;10.600;2024-02-23T03:02:51;93683.25;;;3.14;89.46
85159;BME280;75525;50.718;10.600;2024-02-23T03:03:51;93701.19;;;3.09;89.96
85159;BME280;75525;50.718;10.600;2024-02-23T03:04:51;93679.50;;;3.10;88.67
85159;BME280;75525;50.718;10.600;2024-02-23T03:05:52;93702.50;;;3.06;89.94
85159;BME280;75525;50.718;10.600;2024-02-23T03:06:52;93693.97;;;2.89;89.04
85159;BME280;75525;50.718;10.600;2024-02-23T03:07:53;93681.94;;;2.81;90.12
85159;BME280;75525;50.718;10.600;2024-02-23T03:08:53;93697.69;;;2.78;90.31
85159;BME280;75525;50.718;10.600;2024-02-23T03:09:54;93704.63;;;2.73;90.08
85159;BME280;75525;50.718;10.600;2024-02-23T03:10:55;93695.56;;;2.64;90.99
85159;BME280;75525;50.718;10.600;2024-02-23T03:11:55;93690.75;;;2.66;90.73
85159;BME280;75525;50.718;10.600;2024-02-23T03:12:56;93684.31;;;2.62;90.47
85159;BME280;75525;50.718;10.600;2024-02-23T03:13:56;93690.19;;;2.59;90.53
85159;BME280;75525;50.718;10.600;2024-02-23T03:14:57;93702.50;;;2.60;90.61
85159;BME280;75525;50.718;10.600;2024-02-23T03:15:57;93699.84;;;2.60;91.00
85159;BME280;75525;50.718;10.600;2024-02-23T03:16:58;93700.06;;;2.59;91.15
85159;BME280;75525;50.718;10.600;2024-02-23T03:17:58;93697.44;;;2.64;90.17
85159;BME280;75525;50.718;10.600;2024-02-23T03:18:58;93700.34;;;2.62;91.30
85159;BME280;75525;50.718;10.600;2024-02-23T03:19:59;93682.47;;;2.53;90.77
85159;BME280;75525;50.718;10.600;2024-02-23T03:20:59;93706.25;;;2.64;90.97
85159;BME280;75525;50.718;10.600;2024-02-23T03:22:00;93699.81;;;2.65;90.98
85159;BME280;75525;50.718;10.600;2024-02-23T03:23:00;93698.22;;;2.64;90.87
85159;BME280;75525;50.718;10.600;2024-02-23T03:24:03;93691.28;;;2.68;91.23
85159;BME280;75525;50.718;10.600;2024-02-23T03:25:04;93710.00;;;2.68;89.75
85159;BME280;75525;50.718;10.600;2024-02-23T03:26:08;93704.66;;;2.68;90.75
85159;BME280;75525;50.718;10.600;2024-02-23T03:27:09;93714.78;;;2.66;89.94
85159;BME280;75525;50.718;10.600;2024-02-23T03:28:09;93702.22;;;2.67;90.13
85159;BME280;75525;50.718;10.600;2024-02-23T03:29:10;93711.56;;;2.59;89.95
85159;BME280;75525;50.718;10.600;2024-02-23T03:30:10;93726.53;;;2.60;89.40
85159;BME280;75525;50.718;10.600;2024-02-23T03:31:11;93720.41;;;2.65;89.37
85159;BME280;75525;50.718;10.600;2024-02-23T03:32:11;93723.06;;;2.60;89.29
85159;BME280;75525;50.718;10.600;2024-02-23T03:33:12;93730.56;;;2.68;88.93
85159;BME280;75525;50.718;10.600;2024-02-23T03:34:12;93722.28;;;2.69;88.48
85159;BME280;75525;50.718;10.600;2024-02-23T03:35:13;93728.13;;;2.66;89.48
85159;BME280;75525;50.718;10.600;2024-02-23T03:36:13;93720.66;;;2.68;89.48
85159;BME280;75525;50.718;10.600;2024-02-23T03:37:14;93718.81;;;2.64;89.63
85159;BME280;75525;50.718;10.600;2024-02-23T03:38:14;93734.56;;;2.70;89.44
85159;BME280;75525;50.718;10.600;2024-02-23T03:39:14;93718.00;;;2.63;88.71
85159;BME280;75525;50.718;10.600;2024-02-23T03:40:15;93739.91;;;2.70;89.68
85159;BME280;75525;50.718;10.600;2024-02-23T03:41:18;93731.34;;;2.68;89.72
85159;BME280;75525;50.718;10.600;2024-02-23T03:42:18;93731.88;;;2.65;89.67
85159;BME280;75525;50.718;10.600;2024-02-23T03:43:19;93734.56;;;2.65;89.99
85159;BME280;75525;50.718;10.600;2024-02-23T03:44:19;93736.41;;;2.65;89.84
85159;BME280;75525;50.718;10.600;2024-02-23T03:45:20;93740.16;;;2.64;90.44
85159;BME280;75525;50.718;10.600;2024-02-23T03:46:20;93739.38;;;2.63;89.86
85159;BME280;75525;50.718;10.600;2024-02-23T03:47:21;93740.94;;;2.59;90.67
85159;BME280;75525;50.718;10.600;2024-02-23T03:48:21;93739.63;;;2.67;90.31
85159;BME280;75525;50.718;10.600;2024-02-23T03:49:22;93746.31;;;2.64;90.42
85159;BME280;75525;50.718;10.600;2024-02-23T03:50:22;93749.78;;;2.65;90.17
85159;BME280;75525;50.718;10.600;2024-02-23T03:51:23;93752.72;;;2.63;90.14
85159;BME280;75525;50.718;10.600;2024-02-23T03:52:23;93741.22;;;2.58;90.26
85159;BME280;75525;50.718;10.600;2024-02-23T03:53:24;93730.81;;;2.56;90.94
85159;BME280;75525;50.718;10.600;2024-02-23T03:54:24;93741.50;;;2.56;89.73
85159;BME280;75525;50.718;10.600;2024-02-23T03:55:25;93727.03;;;2.47;89.98
85159;BME280;75525;50.718;10.600;2024-02-23T03:56:25;93745.50;;;2.64;90.36
85159;BME280;75525;50.718;10.600;2024-02-23T03:57:26;93721.72;;;2.52;89.82
85159;BME280;75525;50.718;10.600;2024-02-23T03:58:26;93739.09;;;2.60;89.35
85159;BME280;75525;50.718;10.600;2024-02-23T03:59:26;93744.16;;;2.61;89.84
85159;BME280;75525;50.718;10.600;2024-02-23T04:00:28;93748.44;;;2.62;90.44
85159;BME280;75525;50.718;10.600;2024-02-23T04:01:29;93719.28;;;2.40;90.41
85159;BME280;75525;50.718;10.600;2024-02-23T04:02:29;93746.28;;;2.59;91.08
85159;BME280;75525;50.718;10.600;2024-02-23T04:03:30;93761.53;;;2.64;90.17
85159;BME280;75525;50.718;10.600;2024-02-23T04:04:30;93759.66;;;2.64;89.91
85159;BME280;75525;50.718;10.600;2024-02-23T04:05:30;93761.81;;;2.67;89.00
85159;BME280;75525;50.718;10.600;2024-02-23T04:06:32;93755.41;;;2.68;88.96
85159;BME280;75525;50.718;10.600;2024-02-23T04:07:33;93753.78;;;2.62;88.84
85159;BME280;75525;50.718;10.600;2024-02-23T04:08:33;93768.75;;;2.73;88.62
85159;BME280;75525;50.718;10.600;2024-02-23T04:09:34;93769.84;;;2.72;86.91
85159;BME280;75525;50.718;10.600;2024-02-23T04:10:35;93779.72;;;2.72;89.06
85159;BME280;75525;50.718;10.600;2024-02-23T04:11:35;93772.50;;;2.72;88.00
85159;BME280;75525;50.718;10.600;2024-02-23T04:12:36;93781.03;;;2.75;88.00
85159;BME280;75525;50.718;10.600;2024-02-23T04:13:36;93790.13;;;2.73;88.47
85159;BME280;75525;50.718;10.600;2024-02-23T04:14:36;93796.28;;;2.74;88.83
85159;BME280;75525;50.718;10.600;2024-02-23T04:15:37;93773.53;;;2.66;88.06
85159;BME280;75525;50.718;10.600;2024-02-23T04:16:37;93790.66;;;2.70;88.12
85159;BME280;75525;50.718;10.600;2024-02-23T04:17:38;93798.66;;;2.70;87.92
85159;BME280;75525;50.718;10.600;2024-02-23T04:18:39;93789.59;;;2.71;86.84
85159;BME280;75525;50.718;10.600;2024-02-23T04:19:42;93792.53;;;2.70;85.71
85159;BME280;75525;50.718;10.600;2024-02-23T04:20:43;93803.47;;;2.68;86.61
85159;BME280;75525;50.718;10.600;2024-02-23T04:21:43;93806.69;;;2.70;86.59
85159;BME280;75525;50.718;10.600;2024-02-23T04:22:45;93817.38;;;2.70;86.46
85159;BME280;75525;50.718;10.600;2024-02-23T04:23:46;93774.09;;;2.63;86.10
85159;BME280;75525;50.718;10.600;2024-02-23T04:24:47;93810.16;;;2.71;85.51
85159;BME280;75525;50.718;10.600;2024-02-23T04:25:47;93804.56;;;2.67;86.01
85159;BME280;75525;50.718;10.600;2024-02-23T04:26:48;93784.22;;;2.61;86.05
85159;BME280;75525;50.718;10.600;2024-02-23T04:27:48;93817.34;;;2.65;86.57
85159;BME280;75525;50.718;10.600;2024-02-23T04:28:48;93813.34;;;2.63;86.54
85159;BME280;75525;50.718;10.600;2024-02-23T04:29:49;93822.69;;;2.65;85.15
85159;BME280;75525;50.718;10.600;2024-02-23T04:30:49;93824.84;;;2.63;85.41
85159;BME280;75525;50.718;10.600;2024-02-23T04:31:50;93791.69;;;2.59;85.52
85159;BME280;75525;50.718;10.600;2024-02-23T04:32:50;93799.72;;;2.64;85.82
85159;BME280;75525;50.718;10.600;2024-02-23T04:33:50;93806.66;;;2.65;86.00
85159;BME280;75525;50.718;10.600;2024-02-23T04:34:51;93814.97;;;2.64;85.00
85159;BME280;75525;50.718;10.600;2024-02-23T04:35:51;93813.34;;;2.63;85.22
85159;BME280;75525;50.718;10.600;2024-02-23T04:36:52;93822.66;;;2.55;85.21
85159;BME280;75525;50.718;10.600;2024-02-23T04:37:52;93820.03;;;2.60;84.71
85159;BME280;75525;50.718;10.600;2024-02-23T04:38:53;93818.94;;;2.61;84.42
85159;BME280;75525;50.718;10.600;2024-02-23T04:39:53;93823.78;;;2.64;85.13
85159;BME280;75525;50.718;10.600;2024-02-23T04:40:53;93828.31;;;2.64;84.74
85159;BME280;75525;50.718;10.600;2024-02-23T04:41:54;93817.88;;;2.62;84.83
85159;BME280;75525;50.718;10.600;2024-02-23T04:42:54;93820.03;;;2.60;84.43
85159;BME280;75525;50.718;10.600;2024-02-23T04:43:55;93818.13;;;2.56;84.64
85159;BME280;75525;50.718;10.600;2024-02-23T04:45:01;93832.81;;;2.58;84.30
85159;BME280;75525;50.718;10.600;2024-02-23T04:46:01;93828.25;;;2.48;85.79
85159;BME280;75525;50.718;10.600;2024-02-23T04:47:02;93832.25;;;2.51;83.56
85159;BME280;75525;50.718;10.600;2024-02-23T04:48:03;93817.28;;;2.45;84.55
85159;BME280;75525;50.718;10.600;2024-02-23T04:49:04;93832.00;;;2.53;84.98
85159;BME280;75525;50.718;10.600;2024-02-23T04:50:05;93838.66;;;2.45;85.29
85159;BME280;75525;50.718;10.600;2024-02-23T04:51:05;93849.91;;;2.52;84.84
85159;BME280;75525;50.718;10.600;2024-02-23T04:52:10;93833.88;;;2.52;84.15
85159;BME280;75525;50.718;10.600;2024-02-23T04:53:11;93823.72;;;2.44;84.37
85159;BME280;75525;50.718;10.600;2024-02-23T04:54:11;93827.75;;;2.52;84.82
85159;BME280;75525;50.718;10.600;2024-02-23T04:55:12;93829.59;;;2.51;85.46
85159;BME280;75525;50.718;10.600;2024-02-23T04:56:12;93838.66;;;2.50;85.87
85159;BME280;75525;50.718;10.600;2024-02-23T04:57:13;93834.13;;;2.51;84.75
85159;BME280;75525;50.718;10.600;2024-02-23T04:58:13;93843.47;;;2.48;85.15
85159;BME280;75525;50.718;10.600;2024-02-23T04:59:14;93846.16;;;2.48;85.57
85159;BME280;75525;50.718;10.600;2024-02-23T05:00:15;93842.91;;;2.46;84.08
85159;BME280;75525;50.718;10.600;2024-02-23T05:01:15;93840.25;;;2.46;84.55
85159;BME280;75525;50.718;10.600;2024-02-23T05:02:15;93844.00;;;2.45;85.36
85159;BME280;75525;50.718;10.600;2024-02-23T05:03:16;93855.47;;;2.45;86.06
85159;BME280;75525;50.718;10.600;2024-02-23T05:04:16;93853.88;;;2.44;85.23
85159;BME280;75525;50.718;10.600;2024-02-23T05:05:17;93852.28;;;2.43;83.91
85159;BME280;75525;50.718;10.600;2024-02-23T05:06:17;93852.81;;;2.45;84.56
85159;BME280;75525;50.718;10.600;2024-02-23T05:07:19;93849.84;;;2.42;84.17
85159;BME280;75525;50.718;10.600;2024-02-23T05:08:20;93854.38;;;2.41;84.01
85159;BME280;75525;50.718;10.600;2024-02-23T05:09:20;93856.53;;;2.39;84.30
85159;BME280;75525;50.718;10.600;2024-02-23T05:10:21;93857.88;;;2.47;83.34
85159;BME280;75525;50.718;10.600;2024-02-23T05:11:22;93870.97;;;2.48;84.21
85159;BME280;75525;50.718;10.600;2024-02-23T05:12:23;93869.38;;;2.47;83.23
85159;BME280;75525;50.718;10.600;2024-02-23T05:13:24;93869.63;;;2.46;84.06
85159;BME280;75525;50.718;10.600;2024-02-23T05:14:26;93869.63;;;2.46;85.61
85159;BME280;75525;50.718;10.600;2024-02-23T05:15:27;93869.09;;;2.44;85.90
85159;BME280;75525;50.718;10.600;2024-02-23T05:16:27;93872.28;;;2.41;85.97
85159;BME280;75525;50.718;10.600;2024-02-23T05:17:28;93870.13;;;2.38;86.48
85159;BME280;75525;50.718;10.600;2024-02-23T05:18:29;93870.09;;;2.33;85.23
85159;BME280;75525;50.718;10.600;2024-02-23T05:19:29;93864.22;;;2.31;86.05
85159;BME280;75525;50.718;10.600;2024-02-23T05:20:29;93861.81;;;2.34;86.38
85159;BME280;75525;50.718;10.600;2024-02-23T05:21:30;93841.22;;;2.19;85.91